sensor_id;sensor_type;location;lat;lon;timestamp;temperature;humidity
37232;DHT22;23125;48.156;15.954;2023-07-13T00:00:44;24.50;56.30
37232;DHT22;23125;48.156;15.954;2023-07-13T00:03:10;24.50;56.30
37232;DHT22;23125;48.156;15.954;2023-07-13T00:05:40;24.40;56.30
37232;DHT22;23125;48.156;15.954;2023-07-13T00:08:07;24.40;56.50
37232;DHT22;23125;48.156;15.954;2023-07-13T00:10:34;24.40;56.60
37232;DHT22;23125;48.156;15.954;2023-07-13T00:12:59;24.40;56.60
37232;DHT22;23125;48.156;15.954;2023-07-13T00:15:26;24.30;56.50
37232;DHT22;23125;48.156;15.954;2023-07-13T00:17:54;24.30;56.40
37232;DHT22;23125;48.156;15.954;2023-07-13T00:20:21;24.30;56.50
37232;DHT22;23125;48.156;15.954;2023-07-13T00:22:48;24.20;56.60
37232;DHT22;23125;48.156;15.954;2023-07-13T00:25:15;24.20;56.70
37232;DHT22;23125;48.156;15.954;2023-07-13T00:27:44;24.20;56.70
37232;DHT22;23125;48.156;15.954;2023-07-13T00:30:10;24.10;56.80
37232;DHT22;23125;48.156;15.954;2023-07-13T00:32:38;24.10;56.90
37232;DHT22;23125;48.156;15.954;2023-07-13T00:35:04;24.00;56.90
37232;DHT22;23125;48.156;15.954;2023-07-13T00:37:30;24.00;56.80
37232;DHT22;23125;48.156;15.954;2023-07-13T00:39:56;24.00;57.00
37232;DHT22;23125;48.156;15.954;2023-07-13T00:42:22;24.00;57.10
37232;DHT22;23125;48.156;15.954;2023-07-13T00:45:05;24.00;57.00
37232;DHT22;23125;48.156;15.954;2023-07-13T00:47:32;23.90;57.00
37232;DHT22;23125;48.156;15.954;2023-07-13T00:49:58;23.90;57.00
37232;DHT22;23125;48.156;15.954;2023-07-13T00:52:24;23.90;57.10
37232;DHT22;23125;48.156;15.954;2023-07-13T00:54:51;23.80;57.00
37232;DHT22;23125;48.156;15.954;2023-07-13T00:57:19;23.80;57.20
37232;DHT22;23125;48.156;15.954;2023-07-13T00:59:50;23.80;57.70
37232;DHT22;23125;48.156;15.954;2023-07-13T01:02:17;23.80;57.50
37232;DHT22;23125;48.156;15.954;2023-07-13T01:04:43;23.80;57.50
37232;DHT22;23125;48.156;15.954;2023-07-13T01:07:10;23.80;57.60
37232;DHT22;23125;48.156;15.954;2023-07-13T01:09:37;23.70;57.70
37232;DHT22;23125;48.156;15.954;2023-07-13T01:12:03;23.70;57.60
37232;DHT22;23125;48.156;15.954;2023-07-13T01:14:30;23.70;57.50
37232;DHT22;23125;48.156;15.954;2023-07-13T01:16:56;23.70;57.70
37232;DHT22;23125;48.156;15.954;2023-07-13T01:19:40;23.70;57.70
37232;DHT22;23125;48.156;15.954;2023-07-13T01:22:13;23.60;57.70
37232;DHT22;23125;48.156;15.954;2023-07-13T01:24:43;23.60;57.90
37232;DHT22;23125;48.156;15.954;2023-07-13T01:27:11;23.60;57.90
37232;DHT22;23125;48.156;15.954;2023-07-13T01:29:38;23.60;58.00
37232;DHT22;23125;48.156;15.954;2023-07-13T01:32:15;23.50;58.20
37232;DHT22;23125;48.156;15.954;2023-07-13T01:34:41;23.50;58.10
37232;DHT22;23125;48.156;15.954;2023-07-13T01:37:09;23.50;58.10
37232;DHT22;23125;48.156;15.954;2023-07-13T01:39:35;23.40;58.30
37232;DHT22;23125;48.156;15.954;2023-07-13T01:42:01;23.40;58.50
37232;DHT22;23125;48.156;15.954;2023-07-13T01:44:28;23.40;58.60
37232;DHT22;23125;48.156;15.954;2023-07-13T01:46:53;23.40;58.70
37232;DHT22;23125;48.156;15.954;2023-07-13T01:49:19;23.40;59.50
37232;DHT22;23125;48.156;15.954;2023-07-13T01:51:45;23.40;59.20
37232;DHT22;23125;48.156;15.954;2023-07-13T01:54:11;23.40;59.00
37232;DHT22;23125;48.156;15.954;2023-07-13T01:56:37;23.50;59.20
37232;DHT22;23125;48.156;15.954;2023-07-13T01:59:04;23.40;59.10
37232;DHT22;23125;48.156;15.954;2023-07-13T02:01:30;23.50;59.10
37232;DHT22;23125;48.156;15.954;2023-07-13T02:03:55;23.50;59.20
37232;DHT22;23125;48.156;15.954;2023-07-13T02:06:21;23.50;59.20
37232;DHT22;23125;48.156;15.954;2023-07-13T02:08:47;23.50;59.30
37232;DHT22;23125;48.156;15.954;2023-07-13T02:11:13;23.50;59.40
37232;DHT22;23125;48.156;15.954;2023-07-13T02:13:39;23.50;59.50
37232;DHT22;23125;48.156;15.954;2023-07-13T02:16:05;23.50;59.50
37232;DHT22;23125;48.156;15.954;2023-07-13T02:18:32;23.50;59.50
37232;DHT22;23125;48.156;15.954;2023-07-13T02:20:58;23.50;59.50
37232;DHT22;23125;48.156;15.954;2023-07-13T02:23:24;23.60;59.70
37232;DHT22;23125;48.156;15.954;2023-07-13T02:25:55;23.60;59.70
37232;DHT22;23125;48.156;15.954;2023-07-13T02:28:21;23.60;59.90
37232;DHT22;23125;48.156;15.954;2023-07-13T02:30:47;23.60;59.90
37232;DHT22;23125;48.156;15.954;2023-07-13T02:33:13;23.60;59.80
37232;DHT22;23125;48.156;15.954;2023-07-13T02:35:39;23.60;59.80
37232;DHT22;23125;48.156;15.954;2023-07-13T02:38:05;23.60;60.00
37232;DHT22;23125;48.156;15.954;2023-07-13T02:40:30;23.60;60.00
37232;DHT22;23125;48.156;15.954;2023-07-13T02:42:59;23.70;60.10
37232;DHT22;23125;48.156;15.954;2023-07-13T02:45:25;23.70;60.20
37232;DHT22;23125;48.156;15.954;2023-07-13T02:47:51;23.70;60.20
37232;DHT22;23125;48.156;15.954;2023-07-13T02:50:17;23.70;60.10
37232;DHT22;23125;48.156;15.954;2023-07-13T02:52:43;23.60;60.10
37232;DHT22;23125;48.156;15.954;2023-07-13T02:55:09;23.70;60.30
37232;DHT22;23125;48.156;15.954;2023-07-13T02:57:35;23.70;60.40
37232;DHT22;23125;48.156;15.954;2023-07-13T03:00:02;23.60;60.20
37232;DHT22;23125;48.156;15.954;2023-07-13T03:02:32;23.70;60.40
37232;DHT22;23125;48.156;15.954;2023-07-13T03:04:59;23.70;60.50
37232;DHT22;23125;48.156;15.954;2023-07-13T03:07:25;23.70;60.50
37232;DHT22;23125;48.156;15.954;2023-07-13T03:09:57;23.70;60.60
37232;DHT22;23125;48.156;15.954;2023-07-13T03:12:24;23.70;60.40
37232;DHT22;23125;48.156;15.954;2023-07-13T03:14:51;23.70;60.60
37232;DHT22;23125;48.156;15.954;2023-07-13T03:17:18;23.70;60.80
37232;DHT22;23125;48.156;15.954;2023-07-13T03:19:44;23.70;60.80
37232;DHT22;23125;48.156;15.954;2023-07-13T03:22:10;23.70;60.90
37232;DHT22;23125;48.156;15.954;2023-07-13T03:24:36;23.70;61.00
37232;DHT22;23125;48.156;15.954;2023-07-13T03:27:04;23.80;61.10
37232;DHT22;23125;48.156;15.954;2023-07-13T03:29:30;23.70;60.90
37232;DHT22;23125;48.156;15.954;2023-07-13T03:31:56;23.80;61.10
37232;DHT22;23125;48.156;15.954;2023-07-13T03:34:22;23.80;61.20
37232;DHT22;23125;48.156;15.954;2023-07-13T03:36:48;23.80;61.20
37232;DHT22;23125;48.156;15.954;2023-07-13T03:39:14;23.80;61.20
37232;DHT22;23125;48.156;15.954;2023-07-13T03:41:40;23.80;61.20
37232;DHT22;23125;48.156;15.954;2023-07-13T03:44:06;23.80;61.30
37232;DHT22;23125;48.156;15.954;2023-07-13T03:46:33;23.80;61.30
37232;DHT22;23125;48.156;15.954;2023-07-13T03:48:59;23.80;61.30
37232;DHT22;23125;48.156;15.954;2023-07-13T03:51:25;23.90;61.30
37232;DHT22;23125;48.156;15.954;2023-07-13T03:53:51;23.90;61.30
37232;DHT22;23125;48.156;15.954;2023-07-13T03:56:18;23.90;61.30
37232;DHT22;23125;48.156;15.954;2023-07-13T03:58:47;23.90;61.30
37232;DHT22;23125;48.156;15.954;2023-07-13T04:01:15;23.80;61.30
37232;DHT22;23125;48.156;15.954;2023-07-13T04:03:42;23.80;61.40
37232;DHT22;23125;48.156;15.954;2023-07-13T04:06:22;23.80;61.40
37232;DHT22;23125;48.156;15.954;2023-07-13T04:08:52;23.80;61.50
37232;DHT22;23125;48.156;15.954;2023-07-13T04:11:20;23.80;61.60
37232;DHT22;23125;48.156;15.954;2023-07-13T04:13:46;23.80;61.30
37232;DHT22;23125;48.156;15.954;2023-07-13T04:16:13;23.80;61.40
37232;DHT22;23125;48.156;15.954;2023-07-13T04:18:40;23.70;61.60
37232;DHT22;23125;48.156;15.954;2023-07-13T04:21:07;23.70;61.90
37232;DHT22;23125;48.156;15.954;2023-07-13T04:23:36;23.70;62.10
37232;DHT22;23125;48.156;15.954;2023-07-13T04:26:02;23.70;62.20
37232;DHT22;23125;48.156;15.954;2023-07-13T04:28:28;23.70;62.30
37232;DHT22;23125;48.156;15.954;2023-07-13T04:30:54;23.80;62.40
37232;DHT22;23125;48.156;15.954;2023-07-13T04:33:20;23.80;62.30
37232;DHT22;23125;48.156;15.954;2023-07-13T04:35:50;23.80;62.30
37232;DHT22;23125;48.156;15.954;2023-07-13T04:38:20;23.80;62.20
37232;DHT22;23125;48.156;15.954;2023-07-13T04:40:47;23.80;62.30
37232;DHT22;23125;48.156;15.954;2023-07-13T04:43:14;23.80;62.50
37232;DHT22;23125;48.156;15.954;2023-07-13T04:45:40;23.90;62.60
37232;DHT22;23125;48.156;15.954;2023-07-13T04:48:06;23.90;62.60
37232;DHT22;23125;48.156;15.954;2023-07-13T04:50:32;24.00;62.90
37232;DHT22;23125;48.156;15.954;2023-07-13T04:52:58;24.00;62.90
37232;DHT22;23125;48.156;15.954;2023-07-13T04:55:24;24.00;62.90
37232;DHT22;23125;48.156;15.954;2023-07-13T04:57:50;24.10;63.00
37232;DHT22;23125;48.156;15.954;2023-07-13T05:00:16;24.20;62.90
37232;DHT22;23125;48.156;15.954;2023-07-13T05:02:45;24.20;63.00
37232;DHT22;23125;48.156;15.954;2023-07-13T05:05:11;24.30;63.00
37232;DHT22;23125;48.156;15.954;2023-07-13T05:07:37;24.30;62.80
37232;DHT22;23125;48.156;15.954;2023-07-13T05:10:04;24.40;63.00
37232;DHT22;23125;48.156;15.954;2023-07-13T05:12:30;24.40;63.00
37232;DHT22;23125;48.156;15.954;2023-07-13T05:14:56;24.50;63.00
37232;DHT22;23125;48.156;15.954;2023-07-13T05:17:22;24.60;63.10
37232;DHT22;23125;48.156;15.954;2023-07-13T05:19:48;24.60;63.10
37232;DHT22;23125;48.156;15.954;2023-07-13T05:22:14;24.80;63.90
37232;DHT22;23125;48.156;15.954;2023-07-13T05:24:40;24.90;63.20
37232;DHT22;23125;48.156;15.954;2023-07-13T05:27:06;25.00;62.90
37232;DHT22;23125;48.156;15.954;2023-07-13T05:29:32;25.10;62.60
37232;DHT22;23125;48.156;15.954;2023-07-13T05:31:58;25.10;62.10
37232;DHT22;23125;48.156;15.954;2023-07-13T05:34:23;25.10;61.70
37232;DHT22;23125;48.156;15.954;2023-07-13T05:36:50;25.10;61.60
37232;DHT22;23125;48.156;15.954;2023-07-13T05:39:16;25.10;61.50
37232;DHT22;23125;48.156;15.954;2023-07-13T05:41:42;25.10;61.50
37232;DHT22;23125;48.156;15.954;2023-07-13T05:44:08;25.10;61.30
37232;DHT22;23125;48.156;15.954;2023-07-13T05:46:34;25.00;61.20
37232;DHT22;23125;48.156;15.954;2023-07-13T05:49:00;25.00;61.30
37232;DHT22;23125;48.156;15.954;2023-07-13T05:51:26;25.00;61.40
37232;DHT22;23125;48.156;15.954;2023-07-13T05:53:51;25.10;61.60
37232;DHT22;23125;48.156;15.954;2023-07-13T05:56:17;25.10;61.60
37232;DHT22;23125;48.156;15.954;2023-07-13T05:58:44;25.10;61.60
37232;DHT22;23125;48.156;15.954;2023-07-13T06:01:12;25.10;61.50
37232;DHT22;23125;48.156;15.954;2023-07-13T06:03:38;25.10;61.50
37232;DHT22;23125;48.156;15.954;2023-07-13T06:06:05;25.10;61.50
37232;DHT22;23125;48.156;15.954;2023-07-13T06:08:32;25.10;61.40
37232;DHT22;23125;48.156;15.954;2023-07-13T06:11:17;25.10;61.30
37232;DHT22;23125;48.156;15.954;2023-07-13T06:13:43;25.10;61.40
37232;DHT22;23125;48.156;15.954;2023-07-13T06:16:12;25.20;61.50
37232;DHT22;23125;48.156;15.954;2023-07-13T06:18:39;25.20;61.70
37232;DHT22;23125;48.156;15.954;2023-07-13T06:21:11;25.30;61.70
37232;DHT22;23125;48.156;15.954;2023-07-13T06:23:38;25.30;61.60
37232;DHT22;23125;48.156;15.954;2023-07-13T06:26:04;25.40;61.50
37232;DHT22;23125;48.156;15.954;2023-07-13T06:28:31;25.30;61.20
37232;DHT22;23125;48.156;15.954;2023-07-13T06:30:58;25.30;61.20
37232;DHT22;23125;48.156;15.954;2023-07-13T06:33:25;25.40;61.50
37232;DHT22;23125;48.156;15.954;2023-07-13T06:35:52;25.40;61.50
37232;DHT22;23125;48.156;15.954;2023-07-13T06:38:21;25.40;61.40
37232;DHT22;23125;48.156;15.954;2023-07-13T06:40:47;25.50;61.40
37232;DHT22;23125;48.156;15.954;2023-07-13T06:43:13;25.50;61.30
37232;DHT22;23125;48.156;15.954;2023-07-13T06:45:45;25.60;61.30
37232;DHT22;23125;48.156;15.954;2023-07-13T06:48:15;25.70;61.30
37232;DHT22;23125;48.156;15.954;2023-07-13T06:50:43;25.80;61.40
37232;DHT22;23125;48.156;15.954;2023-07-13T06:53:10;25.90;61.70
37232;DHT22;23125;48.156;15.954;2023-07-13T06:55:36;26.10;61.90
37232;DHT22;23125;48.156;15.954;2023-07-13T06:58:04;26.20;61.70
37232;DHT22;23125;48.156;15.954;2023-07-13T07:00:31;26.30;61.00
37232;DHT22;23125;48.156;15.954;2023-07-13T07:02:57;26.40;60.40
37232;DHT22;23125;48.156;15.954;2023-07-13T07:05:23;26.40;60.10
37232;DHT22;23125;48.156;15.954;2023-07-13T07:07:50;26.40;59.60
37232;DHT22;23125;48.156;15.954;2023-07-13T07:10:18;26.40;59.20
37232;DHT22;23125;48.156;15.954;2023-07-13T07:12:43;26.30;59.00
37232;DHT22;23125;48.156;15.954;2023-07-13T07:15:09;26.30;59.10
37232;DHT22;23125;48.156;15.954;2023-07-13T07:17:35;26.30;59.30
37232;DHT22;23125;48.156;15.954;2023-07-13T07:20:02;26.30;59.30
37232;DHT22;23125;48.156;15.954;2023-07-13T07:22:29;26.30;59.30
37232;DHT22;23125;48.156;15.954;2023-07-13T07:24:56;26.30;59.20
37232;DHT22;23125;48.156;15.954;2023-07-13T07:27:23;26.30;59.10
37232;DHT22;23125;48.156;15.954;2023-07-13T07:29:49;26.30;59.30
37232;DHT22;23125;48.156;15.954;2023-07-13T07:32:15;26.40;59.70
37232;DHT22;23125;48.156;15.954;2023-07-13T07:34:41;26.60;60.60
37232;DHT22;23125;48.156;15.954;2023-07-13T07:37:10;27.10;63.50
37232;DHT22;23125;48.156;15.954;2023-07-13T07:39:36;27.60;63.30
37232;DHT22;23125;48.156;15.954;2023-07-13T07:42:04;28.20;63.00
37232;DHT22;23125;48.156;15.954;2023-07-13T07:44:31;28.70;61.90
37232;DHT22;23125;48.156;15.954;2023-07-13T07:46:58;29.10;60.00
37232;DHT22;23125;48.156;15.954;2023-07-13T07:49:24;29.30;58.00
37232;DHT22;23125;48.156;15.954;2023-07-13T07:51:51;29.30;56.70
37232;DHT22;23125;48.156;15.954;2023-07-13T07:54:17;29.50;57.30
37232;DHT22;23125;48.156;15.954;2023-07-13T07:56:43;29.80;57.50
37232;DHT22;23125;48.156;15.954;2023-07-13T07:59:09;30.00;56.00
37232;DHT22;23125;48.156;15.954;2023-07-13T08:01:36;30.10;55.20
37232;DHT22;23125;48.156;15.954;2023-07-13T08:04:02;30.30;55.60
37232;DHT22;23125;48.156;15.954;2023-07-13T08:06:28;30.50;54.50
37232;DHT22;23125;48.156;15.954;2023-07-13T08:08:55;30.60;53.70
37232;DHT22;23125;48.156;15.954;2023-07-13T08:11:21;30.60;52.70
37232;DHT22;23125;48.156;15.954;2023-07-13T08:13:47;30.80;54.10
37232;DHT22;23125;48.156;15.954;2023-07-13T08:16:13;31.10;54.30
37232;DHT22;23125;48.156;15.954;2023-07-13T08:18:39;31.60;53.30
37232;DHT22;23125;48.156;15.954;2023-07-13T08:21:06;31.70;51.70
37232;DHT22;23125;48.156;15.954;2023-07-13T08:23:33;31.80;50.30
37232;DHT22;23125;48.156;15.954;2023-07-13T08:25:59;31.80;49.10
37232;DHT22;23125;48.156;15.954;2023-07-13T08:28:28;31.90;49.70
37232;DHT22;23125;48.156;15.954;2023-07-13T08:30:54;31.90;48.30
37232;DHT22;23125;48.156;15.954;2023-07-13T08:33:22;31.90;47.30
37232;DHT22;23125;48.156;15.954;2023-07-13T08:35:50;31.80;46.90
37232;DHT22;23125;48.156;15.954;2023-07-13T08:38:17;31.80;47.70
37232;DHT22;23125;48.156;15.954;2023-07-13T08:40:53;32.00;47.50
37232;DHT22;23125;48.156;15.954;2023-07-13T08:43:27;32.10;46.70
37232;DHT22;23125;48.156;15.954;2023-07-13T08:46:28;32.40;47.00
37232;DHT22;23125;48.156;15.954;2023-07-13T08:49:01;32.70;46.90
37232;DHT22;23125;48.156;15.954;2023-07-13T08:54:32;33.10;45.00
37232;DHT22;23125;48.156;15.954;2023-07-13T08:56:57;33.20;44.10
37232;DHT22;23125;48.156;15.954;2023-07-13T08:59:27;33.20;43.20
37232;DHT22;23125;48.156;15.954;2023-07-13T09:04:27;32.90;43.20
37232;DHT22;23125;48.156;15.954;2023-07-13T09:12:24;32.80;43.40
37232;DHT22;23125;48.156;15.954;2023-07-13T09:14:54;32.90;43.70
37232;DHT22;23125;48.156;15.954;2023-07-13T09:17:26;33.00;43.80
37232;DHT22;23125;48.156;15.954;2023-07-13T09:19:59;33.20;43.90
37232;DHT22;23125;48.156;15.954;2023-07-13T09:22:26;33.40;43.50
37232;DHT22;23125;48.156;15.954;2023-07-13T09:27:43;33.70;42.60
37232;DHT22;23125;48.156;15.954;2023-07-13T09:32:43;34.10;42.20
37232;DHT22;23125;48.156;15.954;2023-07-13T09:35:12;34.20;41.40
37232;DHT22;23125;48.156;15.954;2023-07-13T09:37:38;34.40;41.10
37232;DHT22;23125;48.156;15.954;2023-07-13T09:40:24;34.50;40.80
37232;DHT22;23125;48.156;15.954;2023-07-13T09:42:54;34.60;40.60
37232;DHT22;23125;48.156;15.954;2023-07-13T09:45:30;34.70;40.50
37232;DHT22;23125;48.156;15.954;2023-07-13T09:48:11;34.90;40.60
37232;DHT22;23125;48.156;15.954;2023-07-13T09:50:38;35.00;40.30
37232;DHT22;23125;48.156;15.954;2023-07-13T09:53:04;35.10;39.60
37232;DHT22;23125;48.156;15.954;2023-07-13T09:55:39;35.20;39.50
37232;DHT22;23125;48.156;15.954;2023-07-13T10:00:39;35.30;38.60
37232;DHT22;23125;48.156;15.954;2023-07-13T10:03:52;35.20;38.30
37232;DHT22;23125;48.156;15.954;2023-07-13T10:06:21;35.10;38.10
37232;DHT22;23125;48.156;15.954;2023-07-13T10:08:52;35.00;38.10
37232;DHT22;23125;48.156;15.954;2023-07-13T10:11:29;35.00;38.00
37232;DHT22;23125;48.156;15.954;2023-07-13T10:13:58;34.80;37.70
37232;DHT22;23125;48.156;15.954;2023-07-13T10:16:30;34.70;37.80
37232;DHT22;23125;48.156;15.954;2023-07-13T10:19:26;34.70;38.10
37232;DHT22;23125;48.156;15.954;2023-07-13T10:21:58;34.50;38.20
37232;DHT22;23125;48.156;15.954;2023-07-13T10:24:33;34.40;38.10
37232;DHT22;23125;48.156;15.954;2023-07-13T10:27:17;34.20;38.20
37232;DHT22;23125;48.156;15.954;2023-07-13T10:30:06;34.10;38.10
37232;DHT22;23125;48.156;15.954;2023-07-13T10:32:36;34.00;38.30
37232;DHT22;23125;48.156;15.954;2023-07-13T10:35:01;33.90;38.50
37232;DHT22;23125;48.156;15.954;2023-07-13T10:37:40;33.70;38.80
37232;DHT22;23125;48.156;15.954;2023-07-13T10:40:18;33.70;39.10
37232;DHT22;23125;48.156;15.954;2023-07-13T10:42:48;33.60;39.00
37232;DHT22;23125;48.156;15.954;2023-07-13T10:45:18;33.50;38.80
37232;DHT22;23125;48.156;15.954;2023-07-13T10:47:45;33.40;39.10
37232;DHT22;23125;48.156;15.954;2023-07-13T10:50:24;33.40;39.50
37232;DHT22;23125;48.156;15.954;2023-07-13T10:52:54;33.30;39.40
37232;DHT22;23125;48.156;15.954;2023-07-13T10:58:41;33.00;39.30
37232;DHT22;23125;48.156;15.954;2023-07-13T11:01:09;32.90;39.60
37232;DHT22;23125;48.156;15.954;2023-07-13T11:03:56;32.80;39.80
37232;DHT22;23125;48.156;15.954;2023-07-13T11:09:00;32.80;40.60
37232;DHT22;23125;48.156;15.954;2023-07-13T11:13:59;32.60;40.50
37232;DHT22;23125;48.156;15.954;2023-07-13T11:16:44;32.60;40.30
37232;DHT22;23125;48.156;15.954;2023-07-13T11:24:29;32.50;40.70
37232;DHT22;23125;48.156;15.954;2023-07-13T11:27:36;32.50;40.90
37232;DHT22;23125;48.156;15.954;2023-07-13T11:30:24;32.50;40.80
37232;DHT22;23125;48.156;15.954;2023-07-13T11:33:01;32.50;40.70
37232;DHT22;23125;48.156;15.954;2023-07-13T11:35:36;32.40;40.50
37232;DHT22;23125;48.156;15.954;2023-07-13T11:41:15;32.30;40.50
37232;DHT22;23125;48.156;15.954;2023-07-13T11:43:42;32.20;40.50
37232;DHT22;23125;48.156;15.954;2023-07-13T11:46:25;32.20;40.80
37232;DHT22;23125;48.156;15.954;2023-07-13T11:48:52;32.20;40.90
37232;DHT22;23125;48.156;15.954;2023-07-13T11:51:23;32.20;40.80
37232;DHT22;23125;48.156;15.954;2023-07-13T11:53:54;32.10;40.80
37232;DHT22;23125;48.156;15.954;2023-07-13T11:56:21;32.00;40.70
37232;DHT22;23125;48.156;15.954;2023-07-13T11:58:53;31.90;41.00
37232;DHT22;23125;48.156;15.954;2023-07-13T12:01:28;31.80;41.10
37232;DHT22;23125;48.156;15.954;2023-07-13T12:04:00;31.80;41.20
37232;DHT22;23125;48.156;15.954;2023-07-13T12:08:59;31.70;41.60
37232;DHT22;23125;48.156;15.954;2023-07-13T12:11:26;31.60;41.60
37232;DHT22;23125;48.156;15.954;2023-07-13T12:13:53;31.60;41.70
37232;DHT22;23125;48.156;15.954;2023-07-13T12:16:31;31.50;41.70
37232;DHT22;23125;48.156;15.954;2023-07-13T12:19:01;31.50;41.90
37232;DHT22;23125;48.156;15.954;2023-07-13T12:21:36;31.50;41.90
37232;DHT22;23125;48.156;15.954;2023-07-13T12:24:02;31.30;41.60
37232;DHT22;23125;48.156;15.954;2023-07-13T12:26:30;31.30;41.80
37232;DHT22;23125;48.156;15.954;2023-07-13T12:28:59;31.30;41.70
37232;DHT22;23125;48.156;15.954;2023-07-13T12:31:31;31.20;41.40
37232;DHT22;23125;48.156;15.954;2023-07-13T12:34:12;31.10;41.40
37232;DHT22;23125;48.156;15.954;2023-07-13T12:36:55;31.10;41.50
37232;DHT22;23125;48.156;15.954;2023-07-13T12:39:46;31.10;41.60
37232;DHT22;23125;48.156;15.954;2023-07-13T12:42:24;31.00;41.50
37232;DHT22;23125;48.156;15.954;2023-07-13T12:45:12;31.00;41.50
37232;DHT22;23125;48.156;15.954;2023-07-13T12:47:43;30.90;41.50
37232;DHT22;23125;48.156;15.954;2023-07-13T12:50:18;30.90;41.50
37232;DHT22;23125;48.156;15.954;2023-07-13T12:52:51;30.90;41.40
37232;DHT22;23125;48.156;15.954;2023-07-13T12:55:19;30.90;41.40
37232;DHT22;23125;48.156;15.954;2023-07-13T12:57:57;30.90;41.40
37232;DHT22;23125;48.156;15.954;2023-07-13T13:03:02;30.80;41.20
37232;DHT22;23125;48.156;15.954;2023-07-13T13:05:30;30.80;41.00
37232;DHT22;23125;48.156;15.954;2023-07-13T13:07:57;30.80;41.20
37232;DHT22;23125;48.156;15.954;2023-07-13T13:10:23;30.90;41.20
37232;DHT22;23125;48.156;15.954;2023-07-13T13:12:50;30.90;41.30
37232;DHT22;23125;48.156;15.954;2023-07-13T13:15:16;30.90;41.30
37232;DHT22;23125;48.156;15.954;2023-07-13T13:17:42;30.90;41.30
37232;DHT22;23125;48.156;15.954;2023-07-13T13:20:16;31.00;41.30
37232;DHT22;23125;48.156;15.954;2023-07-13T13:22:43;31.10;41.40
37232;DHT22;23125;48.156;15.954;2023-07-13T13:25:14;31.10;41.10
37232;DHT22;23125;48.156;15.954;2023-07-13T13:27:44;31.10;40.90
37232;DHT22;23125;48.156;15.954;2023-07-13T13:30:16;31.10;40.90
37232;DHT22;23125;48.156;15.954;2023-07-13T13:32:44;31.10;41.10
37232;DHT22;23125;48.156;15.954;2023-07-13T13:35:19;31.10;40.80
37232;DHT22;23125;48.156;15.954;2023-07-13T13:37:46;31.10;40.60
37232;DHT22;23125;48.156;15.954;2023-07-13T13:40:19;31.10;40.60
37232;DHT22;23125;48.156;15.954;2023-07-13T13:42:45;31.10;40.50
37232;DHT22;23125;48.156;15.954;2023-07-13T13:45:12;31.10;40.40
37232;DHT22;23125;48.156;15.954;2023-07-13T13:47:39;31.10;40.40
37232;DHT22;23125;48.156;15.954;2023-07-13T13:50:17;31.10;40.60
37232;DHT22;23125;48.156;15.954;2023-07-13T13:52:45;31.10;40.40
37232;DHT22;23125;48.156;15.954;2023-07-13T13:55:13;31.00;40.40
37232;DHT22;23125;48.156;15.954;2023-07-13T13:57:38;31.00;40.20
37232;DHT22;23125;48.156;15.954;2023-07-13T14:00:05;31.00;40.20
37232;DHT22;23125;48.156;15.954;2023-07-13T14:02:31;31.00;40.20
37232;DHT22;23125;48.156;15.954;2023-07-13T14:04:59;30.90;40.10
37232;DHT22;23125;48.156;15.954;2023-07-13T14:07:26;30.90;39.80
37232;DHT22;23125;48.156;15.954;2023-07-13T14:09:58;30.80;40.00
37232;DHT22;23125;48.156;15.954;2023-07-13T14:12:24;30.80;40.00
37232;DHT22;23125;48.156;15.954;2023-07-13T14:14:54;30.80;40.20
37232;DHT22;23125;48.156;15.954;2023-07-13T14:17:25;30.80;40.20
37232;DHT22;23125;48.156;15.954;2023-07-13T14:19:53;30.70;40.40
37232;DHT22;23125;48.156;15.954;2023-07-13T14:22:26;30.70;40.50
37232;DHT22;23125;48.156;15.954;2023-07-13T14:24:54;30.70;40.50
37232;DHT22;23125;48.156;15.954;2023-07-13T14:27:20;30.70;40.60
37232;DHT22;23125;48.156;15.954;2023-07-13T14:29:46;30.70;40.60
37232;DHT22;23125;48.156;15.954;2023-07-13T14:32:13;30.80;40.70
37232;DHT22;23125;48.156;15.954;2023-07-13T14:34:39;30.80;40.80
37232;DHT22;23125;48.156;15.954;2023-07-13T14:37:08;30.80;41.10
37232;DHT22;23125;48.156;15.954;2023-07-13T14:39:38;30.80;41.00
37232;DHT22;23125;48.156;15.954;2023-07-13T14:42:04;30.80;40.80
37232;DHT22;23125;48.156;15.954;2023-07-13T14:44:30;30.80;40.70
37232;DHT22;23125;48.156;15.954;2023-07-13T14:46:58;30.80;40.70
37232;DHT22;23125;48.156;15.954;2023-07-13T14:49:42;30.90;41.00
37232;DHT22;23125;48.156;15.954;2023-07-13T14:52:13;30.90;41.20
37232;DHT22;23125;48.156;15.954;2023-07-13T14:54:40;30.90;41.20
37232;DHT22;23125;48.156;15.954;2023-07-13T14:57:11;31.00;41.20
37232;DHT22;23125;48.156;15.954;2023-07-13T14:59:38;31.00;40.90
37232;DHT22;23125;48.156;15.954;2023-07-13T15:04:40;31.00;40.90
37232;DHT22;23125;48.156;15.954;2023-07-13T15:07:10;30.90;40.80
37232;DHT22;23125;48.156;15.954;2023-07-13T15:09:36;30.90;40.80
37232;DHT22;23125;48.156;15.954;2023-07-13T15:12:03;30.90;40.90
37232;DHT22;23125;48.156;15.954;2023-07-13T15:14:31;30.80;40.80
37232;DHT22;23125;48.156;15.954;2023-07-13T15:16:58;30.70;40.80
37232;DHT22;23125;48.156;15.954;2023-07-13T15:19:25;30.70;41.00
37232;DHT22;23125;48.156;15.954;2023-07-13T15:21:53;30.60;41.50
37232;DHT22;23125;48.156;15.954;2023-07-13T15:24:20;30.50;41.00
37232;DHT22;23125;48.156;15.954;2023-07-13T15:26:47;30.50;41.10
37232;DHT22;23125;48.156;15.954;2023-07-13T15:29:15;30.40;41.20
37232;DHT22;23125;48.156;15.954;2023-07-13T15:31:41;30.30;41.20
37232;DHT22;23125;48.156;15.954;2023-07-13T15:34:13;30.30;41.30
37232;DHT22;23125;48.156;15.954;2023-07-13T15:36:40;30.20;41.30
37232;DHT22;23125;48.156;15.954;2023-07-13T15:39:06;30.10;41.30
37232;DHT22;23125;48.156;15.954;2023-07-13T15:41:33;30.10;41.60
37232;DHT22;23125;48.156;15.954;2023-07-13T15:44:00;30.00;41.40
37232;DHT22;23125;48.156;15.954;2023-07-13T15:46:30;29.90;41.50
37232;DHT22;23125;48.156;15.954;2023-07-13T15:48:57;29.80;41.70
37232;DHT22;23125;48.156;15.954;2023-07-13T15:51:27;29.80;42.00
37232;DHT22;23125;48.156;15.954;2023-07-13T15:53:53;29.70;42.30
37232;DHT22;23125;48.156;15.954;2023-07-13T15:56:24;29.60;42.10
37232;DHT22;23125;48.156;15.954;2023-07-13T15:58:51;29.60;42.50
37232;DHT22;23125;48.156;15.954;2023-07-13T16:01:18;29.40;42.60
37232;DHT22;23125;48.156;15.954;2023-07-13T16:03:46;29.40;42.90
37232;DHT22;23125;48.156;15.954;2023-07-13T16:06:24;29.30;43.10
37232;DHT22;23125;48.156;15.954;2023-07-13T16:08:53;29.20;43.30